Time;durP1;ratioP1;P1;durP2;ratioP2;P2;SDS_P1;SDS_P2;PMS_P1;PMS_P2;Temp;Humidity;BMP_temperature;BMP_pressure;BME280_temperature;BME280_humidity;BME280_pressure;Samples;Min_cycle;Max_cycle;Signal;HPM_P1;HPM_P2
2022/11/23 00:01:24;;;;;;;3.83;1.38;;;3.30;99.90;;;2.44;100.00;95920.59;5037140;28;20324;-43
2022/11/23 00:03:52;;;;;;;6.18;1.27;;;3.20;99.90;;;2.41;100.00;95918.13;5037360;28;20498;-43
2022/11/23 00:06:20;;;;;;;2.60;1.20;;;3.20;99.90;;;2.37;100.00;95919.94;5040424;28;20044;-43
2022/11/23 00:08:46;;;;;;;6.15;1.38;;;3.20;99.90;;;2.41;100.00;95915.50;5044890;28;20032;-42
2022/11/23 00:11:12;;;;;;;7.90;1.73;;;3.20;99.90;;;2.40;100.00;95919.84;5036624;28;20051;-43
2022/11/23 00:13:39;;;;;;;7.72;1.60;;;3.20;99.90;;;2.40;100.00;95919.84;5036797;28;23615;-44
2022/11/23 00:16:16;;;;;;;4.18;1.50;;;3.20;99.90;;;2.40;100.00;95913.78;5047143;28;20037;-43
2022/11/23 00:18:42;;;;;;;6.75;1.83;;;3.20;99.90;;;2.41;100.00;95915.50;5052112;28;20856;-43
2022/11/23 00:21:15;;;;;;;5.35;1.50;;;3.20;99.90;;;2.44;100.00;95924.09;5047725;28;20524;-43
2022/11/23 00:23:40;;;;;;;;;;;3.30;99.90;;;2.44;100.00;95913.66;5042506;28;20028;-42
2022/11/23 00:26:06;;;;;;;9.55;1.70;;;3.30;99.90;;;2.50;100.00;95915.25;5058242;28;20630;-43
2022/11/23 00:28:33;;;;;;;4.05;1.50;;;3.30;99.90;;;2.51;100.00;95918.69;5059002;28;20036;-43
2022/11/23 00:30:59;;;;;;;3.85;1.50;;;3.30;99.90;;;2.52;100.00;95920.41;5055225;28;20804;-43
2022/11/23 00:33:25;;;;;;;8.15;1.48;;;3.30;99.90;;;2.35;100.00;95893.13;5055514;28;21714;-43
2022/11/23 00:36:11;;;;;;;11.38;1.77;;;3.30;99.90;;;2.55;100.00;95920.28;5056214;28;20456;-43
2022/11/23 00:38:37;;;;;;;8.88;1.60;;;3.40;99.90;;;2.62;100.00;95925.31;5053246;28;20032;-42
2022/11/23 00:41:10;;;;;;;7.60;1.48;;;3.50;99.90;;;2.77;100.00;95912.72;5049650;28;20037;-44
2022/11/23 00:43:36;;;;;;;6.45;1.67;;;3.60;99.90;;;2.93;100.00;95918.31;5038129;28;20388;-44
2022/11/23 00:46:09;;;;;;;7.70;1.90;;;3.70;99.90;;;3.08;100.00;95920.44;5037698;28;20041;-43
2022/11/23 00:48:35;;;;;;;3.05;1.40;;;3.90;99.90;;;3.20;100.00;95912.25;5041534;28;20097;-43
2022/11/23 00:51:04;;;;;;;6.70;1.50;;;4.00;99.90;;;3.35;100.00;95921.31;5035505;28;20128;-44
2022/11/23 00:53:29;;;;;;;3.92;1.30;;;4.10;99.90;;;3.41;100.00;95904.63;5022090;28;20046;-44
2022/11/23 00:55:56;;;;;;;4.38;1.58;;;4.30;99.90;;;3.49;100.00;95910.47;5042001;28;20016;-44
2022/11/23 00:58:23;;;;;;;7.10;1.48;;;4.30;99.90;;;3.58;100.00;95922.34;5040810;28;20498;-44
2022/11/23 01:00:49;;;;;;;5.10;1.30;;;4.40;99.90;;;3.63;100.00;95920.44;5039136;28;20112;-43
2022/11/23 01:03:15;;;;;;;5.10;1.50;;;4.50;99.90;;;3.68;100.00;95922.88;5038929;28;20032;-43
2022/11/23 01:05:41;;;;;;;5.72;1.85;;;4.50;99.90;;;3.67;100.00;95918.59;5041568;28;20033;-42
2022/11/23 01:08:07;;;;;;;4.55;1.30;;;4.50;99.90;;;3.73;100.00;95913.16;5040147;28;20404;-43
2022/11/23 01:10:33;;;;;;;7.00;1.30;;;4.60;99.90;;;3.73;100.00;95914.03;5044858;28;20032;-43
2022/11/23 01:12:59;;;;;;;5.40;1.15;;;4.60;99.90;;;3.71;100.00;95909.75;5046276;28;20436;-44
2022/11/23 01:15:25;;;;;;;6.90;1.45;;;4.50;99.90;;;3.67;100.00;95919.44;5051733;28;20411;-44
2022/11/23 01:17:51;;;;;;;4.53;1.35;;;4.50;99.90;;;3.53;100.00;95919.88;5053992;28;20428;-43
2022/11/23 01:20:17;;;;;;;3.85;1.08;;;4.40;99.90;;;3.47;100.00;95917.47;5053004;28;20097;-42
2022/11/23 01:22:43;;;;;;;5.97;1.33;;;4.30;99.90;;;3.31;100.00;95914.50;5052198;28;20069;-44
2022/11/23 01:25:09;;;;;;;4.00;1.42;;;4.20;99.90;;;3.28;100.00;95927.63;5048415;28;20047;-43
2022/11/23 01:27:34;;;;;;;3.35;1.02;;;4.10;99.90;;;3.20;100.00;95927.88;5049875;28;20033;-43
2022/11/23 01:30:00;;;;;;;5.20;1.35;;;4.00;99.90;;;3.10;100.00;95921.25;5047444;28;20032;-43
2022/11/23 01:32:26;;;;;;;5.65;1.17;;;4.00;99.90;;;3.03;100.00;95930.16;5050010;28;20028;-44
2022/11/23 01:34:51;;;;;;;2.20;0.90;;;3.80;99.90;;;2.94;100.00;95926.06;5049911;28;20029;-44
2022/11/23 01:37:17;;;;;;;5.53;1.27;;;3.80;99.90;;;2.91;100.00;95923.56;5053533;28;20392;-43
2022/11/23 01:39:43;;;;;;;4.22;1.05;;;3.70;99.90;;;2.95;100.00;95916.53;5054018;28;20029;-43
2022/11/23 01:42:08;;;;;;;6.68;1.35;;;3.70;99.90;;;2.98;100.00;95917.28;5050536;28;20415;-43
2022/11/23 01:44:38;;;;;;;3.55;1.23;;;3.80;99.90;;;3.04;100.00;95927.50;5049861;28;20079;-43
2022/11/23 01:47:08;;;;;;;4.53;1.55;;;3.80;99.90;;;3.06;100.00;95924.84;5045518;28;20032;-43
2022/11/23 01:49:48;;;;;;;3.88;1.25;;;3.90;99.90;;;3.06;100.00;95930.06;5046116;28;20491;-43
2022/11/23 01:52:21;;;;;;;5.00;0.95;;;3.80;99.90;;;3.03;100.00;95930.16;5037366;28;20040;-43
2022/11/23 01:54:57;;;;;;;6.32;1.33;;;3.80;99.90;;;3.03;100.00;95936.22;5029572;28;20032;-43
2022/11/23 01:57:32;;;;;;;2.97;1.10;;;3.80;99.90;;;3.03;100.00;95927.53;5042639;28;20303;-44
2022/11/23 01:59:58;;;;;;;5.05;1.40;;;3.80;99.90;;;3.07;100.00;95937.00;5028276;28;20044;-43
2022/11/23 02:02:26;;;;;;;2.65;0.88;;;3.90;99.90;;;3.03;100.00;95930.16;5029211;28;20062;-42
2022/11/23 02:04:54;;;;;;;5.80;1.40;;;3.80;99.90;;;3.06;100.00;95933.50;5034533;28;20171;-42
2022/11/23 02:07:22;;;;;;;4.68;1.38;;;3.90;99.90;;;2.99;100.00;95934.59;5040709;28;20060;-43
2022/11/23 02:09:49;;;;;;;4.60;1.30;;;3.80;99.90;;;2.95;100.00;95940.81;5047789;28;20487;-42
2022/11/23 02:12:15;;;;;;;5.43;1.20;;;3.80;99.90;;;2.90;100.00;95941.84;5044635;28;20472;-42
2022/11/23 02:14:41;;;;;;;3.63;1.02;;;3.70;99.90;;;2.84;100.00;95943.72;5045223;28;20021;-43
2022/11/23 02:17:07;;;;;;;4.93;1.20;;;3.60;99.90;;;2.75;100.00;95936.19;5031897;28;20067;-43
2022/11/23 02:20:06;;;;;;;6.90;1.23;;;3.60;99.90;;;2.83;100.00;95943.78;5034205;28;20035;-43
2022/11/23 02:22:56;;;;;;;4.63;1.30;;;3.60;99.90;;;2.79;100.00;95944.78;5033158;28;20041;-44
2022/11/23 02:25:40;;;;;;;5.32;1.23;;;3.60;99.90;;;2.78;100.00;95945.66;5047249;28;20155;-43
2022/11/23 02:28:06;;;;;;;3.60;1.10;;;3.60;99.90;;;2.72;100.00;95936.28;5028568;28;20076;-43
2022/11/23 02:30:34;;;;;;;8.68;1.25;;;3.60;99.90;;;2.77;100.00;95941.38;5030174;28;20033;-43
2022/11/23 02:33:04;;;;;;;3.45;1.10;;;3.50;99.90;;;2.73;100.00;95938.00;5031215;28;20075;-43
2022/11/23 02:35:31;;;;;;;5.53;1.00;;;3.60;99.90;;;2.72;100.00;95938.88;5047823;28;20480;-43
2022/11/23 02:37:58;;;;;;;5.25;1.40;;;3.50;99.90;;;2.72;100.00;95940.66;5045304;28;20147;-46
2022/11/23 02:40:28;;;;;;;6.30;1.38;;;3.60;99.90;;;2.76;100.00;95947.47;5036496;28;20028;-43
2022/11/23 02:42:54;;;;;;;3.38;1.17;;;3.60;99.90;;;2.75;100.00;95945.78;5030937;28;20042;-44
2022/11/23 02:45:49;;;;;;;10.77;1.50;;;3.50;99.90;;;2.75;100.00;95949.22;5045903;28;20436;-43
2022/11/23 02:48:16;;;;;;;3.55;1.13;;;3.60;99.90;;;2.66;100.00;95939.06;5047598;28;20028;-43
2022/11/23 02:50:41;;;;;;;6.05;1.20;;;3.50;99.90;;;2.79;100.00;95948.22;5055075;28;20353;-43
2022/11/23 02:53:07;;;;;;;5.22;1.42;;;3.60;99.90;;;2.80;100.00;95944.72;5048630;28;20036;-42
2022/11/23 02:55:33;;;;;;;3.70;1.13;;;3.60;99.90;;;2.83;100.00;95942.00;5050901;28;20820;-42
2022/11/23 02:57:59;;;;;;;4.45;1.30;;;3.60;99.90;;;2.70;100.00;95917.25;5049332;28;20031;-43
2022/11/23 03:00:24;;;;;;;3.15;1.00;;;3.60;99.90;;;2.71;100.00;95923.31;5050456;28;20043;-43
2022/11/23 03:02:50;;;;;;;2.78;1.00;;;3.60;99.90;;;2.83;100.00;95944.63;5052249;28;20931;-43
2022/11/23 03:05:16;;;;;;;5.45;1.23;;;3.60;99.90;;;2.72;100.00;95949.28;5052814;28;20036;-43
2022/11/23 03:07:41;;;;;;;4.68;1.52;;;3.60;99.90;;;2.68;100.00;95947.69;5051570;28;20540;-42
2022/11/23 03:10:08;;;;;;;5.78;1.15;;;3.60;99.90;;;2.66;100.00;95947.72;5053295;28;20029;-43
2022/11/23 03:12:33;;;;;;;2.67;0.70;;;3.50;99.90;;;2.70;100.00;95956.31;5051262;28;20101;-43
2022/11/23 03:14:59;;;;;;;5.10;1.23;;;3.50;99.90;;;2.62;100.00;95948.72;5052022;28;20053;-46
2022/11/23 03:17:26;;;;;;;6.45;1.20;;;3.50;99.90;;;2.60;100.00;95947.91;5055072;28;20388;-42
2022/11/23 03:19:52;;;;;;;3.85;1.38;;;3.50;99.90;;;2.63;100.00;95944.38;5051412;28;20040;-43
2022/11/23 03:22:18;;;;;;;3.80;1.13;;;3.40;99.90;;;2.61;100.00;95954.81;5053131;28;20041;-43
2022/11/23 03:24:44;;;;;;;3.85;1.10;;;3.40;99.90;;;2.60;100.00;95954.84;5052702;28;20127;-43
2022/11/23 03:27:10;;;;;;;3.95;1.30;;;3.40;99.90;;;2.63;100.00;95962.59;5046384;28;20036;-42
2022/11/23 03:29:36;;;;;;;4.35;1.38;;;3.40;99.90;;;2.56;100.00;95942.84;5054807;28;20116;-43
2022/11/23 03:32:01;;;;;;;5.00;1.20;;;3.40;99.90;;;2.62;100.00;95953.06;5053837;28;20175;-43
2022/11/23 03:34:27;;;;;;;5.50;1.08;;;3.50;99.90;;;2.62;100.00;95956.53;5072802;22;21153;-55
2022/11/23 03:36:53;;;;;;;4.47;1.50;;;3.40;99.90;;;2.61;100.00;95959.16;5075912;28;20708;-55
2022/11/23 03:39:19;;;;;;;3.90;1.08;;;3.40;99.90;;;2.65;100.00;95955.56;5074921;28;20047;-55
2022/11/23 03:41:44;;;;;;;7.75;1.20;;;3.40;99.90;;;2.55;100.00;95946.31;5071767;28;20161;-54
2022/11/23 03:44:10;;;;;;;5.28;0.93;;;3.40;99.90;;;2.64;100.00;95954.72;5070711;28;20055;-55
2022/11/23 03:46:36;;;;;;;6.90;1.30;;;3.50;99.90;;;2.66;100.00;95960.75;5073184;28;20043;-55
2022/11/23 03:49:02;;;;;;;5.72;1.38;;;3.50;99.90;;;2.70;100.00;95958.91;5063929;28;20544;-55
2022/11/23 03:51:27;;;;;;;3.67;1.25;;;3.50;99.90;;;2.74;100.00;95950.09;5063190;28;20080;-56
2022/11/23 03:53:53;;;;;;;4.80;1.42;;;3.60;99.90;;;2.65;100.00;95932.16;5058813;28;20036;-56
2022/11/23 03:56:19;;;;;;;2.05;0.98;;;3.60;99.90;;;2.85;100.00;95948.06;5060627;28;20032;-56
2022/11/23 03:58:44;;;;;;;4.20;1.45;;;3.60;99.90;;;2.89;100.00;95953.16;5071684;28;20300;-57
2022/11/23 04:01:10;;;;;;;2.40;1.15;;;3.70;99.90;;;2.93;100.00;95945.22;5070820;28;20262;-55
2022/11/23 04:03:36;;;;;;;9.18;1.50;;;3.80;99.90;;;2.90;100.00;95934.88;5069485;28;20497;-56
2022/11/23 04:06:02;;;;;;;3.97;1.25;;;3.80;99.90;;;3.04;100.00;95937.91;5063970;28;20151;-56
2022/11/23 04:08:28;;;;;;;3.15;1.20;;;3.90;99.90;;;3.13;100.00;95936.78;5073897;28;20061;-56
2022/11/23 04:10:57;;;;;;;3.65;1.30;;;3.90;99.90;;;3.20;100.00;95940.91;5065140;28;20713;-55
2022/11/23 04:13:23;;;;;;;4.63;1.33;;;4.00;99.90;;;3.17;100.00;95922.75;5071024;28;20039;-56
2022/11/23 04:15:49;;;;;;;4.35;1.17;;;4.10;99.90;;;3.26;100.00;95937.25;5064078;28;20438;-57
2022/11/23 04:18:15;;;;;;;6.38;1.52;;;4.10;99.90;;;3.27;100.00;95927.69;5059380;28;20047;-57
2022/11/23 04:20:40;;;;;;;4.32;1.23;;;4.10;99.90;;;3.28;100.00;95925.03;5052406;28;20123;-57
2022/11/23 04:23:06;;;;;;;4.10;1.17;;;4.10;99.90;;;3.32;100.00;95933.59;5060532;28;20308;-57
2022/11/23 04:25:32;;;;;;;3.35;1.17;;;4.10;99.90;;;3.29;100.00;95939.78;5060946;28;20125;-56
2022/11/23 04:27:58;;;;;;;4.80;1.00;;;4.10;99.90;;;3.22;100.00;95927.84;5056390;28;20051;-56
2022/11/23 04:30:24;;;;;;;3.60;1.60;;;4.10;99.90;;;3.21;100.00;95945.22;5054383;28;20041;-56
2022/11/23 04:32:50;;;;;;;2.45;1.00;;;4.00;99.90;;;3.17;100.00;95935.78;5059812;28;20025;-56
2022/11/23 04:35:16;;;;;;;2.13;1.00;;;4.00;99.90;;;3.10;100.00;95936.88;5040472;28;20613;-57
2022/11/23 04:37:41;;;;;;;4.80;1.30;;;3.90;99.90;;;3.01;100.00;95931.94;5054126;28;20040;-57
2022/11/23 04:40:08;;;;;;;4.78;1.10;;;3.80;99.90;;;2.85;100.00;95926.34;5061313;28;20039;-57
2022/11/23 04:42:34;;;;;;;4.72;1.15;;;3.70;99.90;;;2.81;100.00;95935.16;5063131;28;20031;-56
2022/11/23 04:45:00;;;;;;;2.70;1.05;;;3.60;99.90;;;2.72;100.00;95936.28;5056017;28;20491;-57
2022/11/23 04:47:26;;;;;;;3.38;0.95;;;3.50;99.90;;;2.60;100.00;95928.81;5062938;28;20115;-56
2022/11/23 04:49:51;;;;;;;3.08;1.17;;;3.50;99.90;;;2.57;100.00;95940.19;5064111;28;20408;-56
2022/11/23 04:52:17;;;;;;;4.10;1.15;;;3.40;99.90;;;2.52;100.00;95931.66;5059681;28;20056;-60
2022/11/23 04:54:43;;;;;;;5.25;0.82;;;3.40;99.90;;;2.44;100.00;95921.47;5057938;28;20054;-56
2022/11/23 04:57:09;;;;;;;2.97;1.13;;;3.30;99.90;;;2.41;100.00;95925.91;5057897;28;20491;-56
2022/11/23 04:59:34;;;;;;;3.22;1.10;;;3.20;99.90;;;2.29;100.00;95911.50;5055987;28;20111;-57
2022/11/23 05:02:00;;;;;;;4.22;1.10;;;3.20;99.90;;;2.23;100.00;95916.88;5065272;28;20539;-56
2022/11/23 05:04:26;;;;;;;3.30;1.20;;;3.10;99.90;;;2.24;100.00;95926.38;5069715;28;20531;-56
2022/11/23 05:06:52;;;;;;;7.13;1.30;;;3.10;99.90;;;2.20;100.00;95932.56;5062361;28;20776;-57
2022/11/23 05:09:18;;;;;;;2.88;1.00;;;3.00;99.90;;;2.23;100.00;95935.94;5069201;28;20031;-56
2022/11/23 05:11:44;;;;;;;2.70;1.20;;;3.10;99.90;;;2.24;100.00;95936.78;5068644;28;20024;-57
2022/11/23 05:14:09;;;;;;;3.33;1.00;;;3.10;99.90;;;2.27;100.00;95934.09;5067714;28;20034;-56
2022/11/23 05:16:35;;;;;;;3.78;1.25;;;3.10;99.90;;;2.32;100.00;95931.38;5065732;28;20512;-56
2022/11/23 05:19:01;;;;;;;3.05;1.08;;;3.10;99.90;;;2.21;100.00;95913.47;5065342;28;20024;-56
2022/11/23 05:21:26;;;;;;;3.40;1.00;;;3.20;99.90;;;2.38;100.00;95926.84;5064444;28;20025;-56
2022/11/23 05:23:52;;;;;;;3.17;1.20;;;3.20;99.90;;;2.42;100.00;95925.88;5058006;28;20809;-57
2022/11/23 05:26:18;;;;;;;5.53;1.10;;;3.30;99.90;;;2.43;100.00;95917.16;5056304;28;20500;-56
2022/11/23 05:28:43;;;;;;;3.72;1.23;;;3.30;99.90;;;2.53;100.00;95920.38;5060017;28;20068;-57
2022/11/23 05:31:09;;;;;;;4.70;1.38;;;3.40;99.90;;;2.59;100.00;95924.53;5062741;28;20750;-57
2022/11/23 05:33:35;;;;;;;4.70;1.13;;;3.50;99.90;;;2.68;100.00;95924.25;5058118;28;20029;-57
2022/11/23 05:36:01;;;;;;;6.50;1.05;;;3.50;99.90;;;2.75;100.00;95924.94;5058987;28;20486;-58
2022/11/23 05:38:27;;;;;;;5.40;1.23;;;3.60;99.90;;;2.82;100.00;95922.09;5063376;28;20051;-57
2022/11/23 05:40:53;;;;;;;2.88;0.93;;;3.70;99.90;;;2.91;100.00;95920.09;5055484;28;20074;-57
2022/11/23 05:43:19;;;;;;;6.13;1.25;;;3.70;99.90;;;2.97;100.00;95927.75;5059002;28;20123;-57
2022/11/23 05:45:44;;;;;;;3.65;1.50;;;3.80;99.90;;;3.06;100.00;95919.66;5059716;28;20511;-57
2022/11/23 05:48:10;;;;;;;2.17;1.20;;;3.90;99.90;;;3.02;100.00;95897.22;5063045;28;20393;-58
2022/11/23 05:50:36;;;;;;;2.15;0.90;;;4.00;99.90;;;3.22;100.00;95930.44;5055359;28;20404;-58
2022/11/23 05:53:02;;;;;;;3.88;1.00;;;4.00;99.90;;;3.25;100.00;95919.94;5042942;28;20071;-56
2022/11/23 05:55:28;;;;;;;4.00;1.30;;;4.10;99.90;;;3.35;100.00;95921.31;5064925;28;20098;-55
2022/11/23 05:57:53;;;;;;;2.08;0.93;;;4.20;99.90;;;3.41;100.00;95923.75;5072624;28;20043;-56
2022/11/23 06:00:19;;;;;;;3.50;1.15;;;4.20;99.90;;;3.46;100.00;95923.56;5066333;28;20036;-55
2022/11/23 06:02:45;;;;;;;4.38;1.30;;;4.30;99.90;;;3.54;100.00;95931.19;5053961;28;20056;-59
2022/11/23 06:05:11;;;;;;;3.28;1.45;;;4.30;99.90;;;3.56;100.00;95924.16;5035159;28;20039;-56
2022/11/23 06:07:37;;;;;;;4.80;1.10;;;4.30;99.90;;;3.59;100.00;95917.09;5054789;28;20029;-57
2022/11/23 06:10:05;;;;;;;3.72;1.00;;;4.40;99.90;;;3.56;100.00;95903.31;5058767;28;20044;-56
2022/11/23 06:12:31;;;;;;;3.40;1.15;;;4.40;99.90;;;3.54;100.00;95905.94;5065916;28;20384;-57
2022/11/23 06:14:57;;;;;;;4.40;1.23;;;4.40;99.90;;;3.59;100.00;95919.69;5063402;28;21394;-56
2022/11/23 06:17:23;;;;;;;3.25;1.25;;;4.40;99.90;;;3.58;100.00;95928.41;5062306;28;20030;-57
2022/11/23 06:19:49;;;;;;;3.53;1.42;;;4.40;99.90;;;3.51;100.00;95920.84;5066195;28;20721;-57
2022/11/23 06:22:15;;;;;;;3.30;1.27;;;4.30;99.90;;;3.40;100.00;95924.63;5060554;28;20076;-57
2022/11/23 06:24:41;;;;;;;3.20;1.17;;;4.20;99.90;;;3.30;100.00;95923.22;5063869;28;20032;-57
2022/11/23 06:27:07;;;;;;;4.32;1.30;;;4.10;99.90;;;3.19;100.00;95930.53;5065368;28;20430;-57
2022/11/23 06:29:33;;;;;;;5.18;1.50;;;4.00;99.90;;;3.05;100.00;95918.81;5062343;28;20051;-57
2022/11/23 06:31:59;;;;;;;5.13;1.42;;;3.90;99.90;;;2.94;100.00;95920.00;5063345;28;20972;-57
2022/11/23 06:34:24;;;;;;;3.00;1.05;;;3.80;99.90;;;2.86;100.00;95922.84;5063471;28;20020;-57
2022/11/23 06:36:50;;;;;;;6.57;1.10;;;3.70;99.90;;;2.76;100.00;95922.25;5063428;28;20533;-57
2022/11/23 06:39:16;;;;;;;3.22;1.08;;;3.60;99.90;;;2.68;100.00;95924.25;5068579;28;20035;-56
2022/11/23 06:41:42;;;;;;;3.38;1.13;;;3.50;99.90;;;2.59;100.00;95929.75;5064301;28;20479;-57
2022/11/23 06:44:07;;;;;;;3.50;1.10;;;3.40;99.90;;;2.53;100.00;95922.97;5073330;28;20036;-56
2022/11/23 06:46:33;;;;;;;5.03;1.45;;;3.40;99.90;;;2.51;100.00;95921.28;5070721;28;20097;-57
2022/11/23 06:48:59;;;;;;;7.18;1.50;;;3.40;99.90;;;2.47;100.00;95921.38;5071684;28;20044;-57
2022/11/23 06:51:25;;;;;;;3.55;1.00;;;3.40;99.90;;;2.46;100.00;95927.47;5066902;28;20032;-57
2022/11/23 06:53:50;;;;;;;3.05;1.08;;;3.40;99.90;;;2.45;100.00;95924.94;5067232;28;20053;-57
2022/11/23 06:56:16;;;;;;;4.60;1.27;;;3.30;99.90;;;2.44;100.00;95928.41;5067894;28;20110;-57
2022/11/23 06:58:42;;;;;;;5.63;1.20;;;3.30;99.90;;;2.45;100.00;95932.72;5067872;28;20051;-57
2022/11/23 07:01:08;;;;;;;4.30;1.35;;;3.30;99.90;;;2.45;100.00;95932.72;5065780;28;20029;-57
2022/11/23 07:03:34;;;;;;;8.13;1.85;;;3.30;99.90;;;2.45;100.00;95928.38;5073259;28;20064;-56
2022/11/23 07:06:08;;;;;;;9.23;2.15;;;3.30;99.90;;;2.50;100.00;95945.63;5069223;28;20059;-57
2022/11/23 07:08:35;;;;;;;6.15;1.90;;;3.30;99.90;;;2.50;100.00;95940.41;5066404;28;20043;-57
2022/11/23 07:11:02;;;;;;;3.90;2.00;;;3.30;99.90;;;2.48;100.00;95948.25;5070837;28;20020;-56
2022/11/23 07:13:28;;;;;;;6.40;1.63;;;3.30;99.90;;;2.45;100.00;95950.94;5071300;28;20496;-56
2022/11/23 07:15:57;;;;;;;6.15;1.48;;;3.30;99.90;;;2.42;100.00;95944.09;5069995;28;20042;-56
2022/11/23 07:18:22;;;;;;;3.00;1.50;;;3.30;99.90;;;2.43;100.00;95953.59;5065960;28;20132;-56
2022/11/23 07:20:48;;;;;;;4.28;1.23;;;3.30;99.90;;;2.39;100.00;95951.97;5070300;28;20480;-56
2022/11/23 07:23:14;;;;;;;2.78;1.30;;;3.20;99.90;;;2.28;100.00;95935.81;5068879;28;20040;-56
2022/11/23 07:25:39;;;;;;;10.10;1.85;;;3.20;99.90;;;2.34;100.00;95950.41;5068117;28;20569;-57
2022/11/23 07:28:06;;;;;;;3.60;1.33;;;3.20;99.90;;;2.32;100.00;95950.44;5071408;28;20044;-57
2022/11/23 07:30:33;;;;;;;3.67;1.60;;;3.20;99.90;;;2.32;100.00;95947.00;5067559;28;20027;-56
2022/11/23 07:33:07;;;;;;;3.63;1.48;;;3.20;99.90;;;2.32;100.00;95953.03;5069294;28;20031;-59
2022/11/23 07:35:34;;;;;;;3.88;1.45;;;3.20;99.90;;;2.33;100.00;95953.88;5068998;28;20028;-57
2022/11/23 07:38:01;;;;;;;5.38;1.63;;;3.20;99.90;;;2.35;100.00;95949.47;5068000;28;20093;-57
2022/11/23 07:40:27;;;;;;;3.72;1.27;;;3.20;99.90;;;2.37;100.00;95951.16;5071679;28;20314;-56
2022/11/23 07:42:58;;;;;;;4.90;1.55;;;3.20;99.90;;;2.40;100.00;95960.63;5074340;28;20048;-56
2022/11/23 07:45:24;;;;;;;5.88;1.48;;;3.30;99.90;;;2.45;100.00;95963.94;5058256;28;20512;-56
2022/11/23 07:48:03;;;;;;;4.90;1.48;;;3.30;99.90;;;2.51;100.00;95962.91;5073652;28;20039;-56
2022/11/23 07:50:29;;;;;;;4.00;1.70;;;3.40;99.90;;;2.58;100.00;95969.66;5071476;28;20032;-56
2022/11/23 07:52:55;;;;;;;3.42;1.40;;;3.40;99.90;;;2.64;100.00;95970.34;5070946;28;20276;-57
2022/11/23 07:55:22;;;;;;;9.35;1.65;;;3.50;99.90;;;2.70;100.00;95963.25;5072565;28;20131;-56
2022/11/23 07:57:52;;;;;;;4.93;1.27;;;3.60;99.90;;;2.79;100.00;95961.22;5075637;28;20078;-57
2022/11/23 08:00:19;;;;;;;4.07;1.65;;;3.60;99.90;;;2.89;100.00;95971.38;5063598;28;20097;-56
2022/11/23 08:02:45;;;;;;;5.55;1.80;;;3.70;99.90;;;2.85;100.00;95953.25;5065856;28;20490;-57
2022/11/23 08:05:10;;;;;;;5.97;1.60;;;3.80;99.90;;;3.07;100.00;95970.84;5064382;28;20036;-57
2022/11/23 08:07:36;;;;;;;2.47;1.35;;;3.90;99.90;;;3.18;100.00;95976.56;5065538;28;20369;-57
2022/11/23 08:10:02;;;;;;;6.10;1.50;;;4.00;99.90;;;3.31;100.00;95976.19;5052655;28;20036;-57
2022/11/23 08:12:28;;;;;;;6.57;1.48;;;4.20;99.90;;;3.42;100.00;95971.50;5068367;28;20028;-58
2022/11/23 08:14:54;;;;;;;4.03;1.58;;;4.30;99.90;;;3.50;100.00;95973.84;5067067;28;20024;-58
2022/11/23 08:17:19;;;;;;;4.95;1.60;;;4.40;99.90;;;3.60;100.00;95968.28;5067776;28;20403;-58
2022/11/23 08:19:45;;;;;;;6.60;1.30;;;4.50;99.90;;;3.76;100.00;95978.25;5067112;28;20060;-57
2022/11/23 08:22:11;;;;;;;5.43;1.42;;;4.60;99.90;;;3.86;100.00;95981.38;5063864;28;20083;-57
2022/11/23 08:24:36;;;;;;;5.03;1.63;;;4.70;99.90;;;3.92;100.00;95973.38;5065760;28;20036;-57
2022/11/23 08:27:02;;;;;;;7.97;1.65;;;4.80;99.90;;;3.97;100.00;95972.31;5070508;28;20116;-57
2022/11/23 08:29:29;;;;;;;4.40;1.30;;;4.80;99.90;;;4.07;100.00;95983.28;5068368;28;20032;-56
2022/11/23 08:31:55;;;;;;;5.68;1.50;;;4.90;99.90;;;4.11;100.00;95976.19;5071898;28;20028;-56
2022/11/23 08:34:21;;;;;;;7.05;1.45;;;5.00;99.90;;;4.12;100.00;95983.13;5070564;28;20020;-57
2022/11/23 08:36:49;;;;;;;3.53;1.63;;;5.00;99.90;;;4.13;100.00;95977.03;5065724;28;20480;-57
2022/11/23 08:39:16;;;;;;;4.35;1.63;;;5.00;99.90;;;4.10;100.00;95975.34;5072989;28;20476;-55
2022/11/23 08:41:42;;;;;;;4.75;1.50;;;5.00;99.90;;;4.17;100.00;95982.06;5074669;28;20078;-57
2022/11/23 08:44:09;;;;;;;3.00;1.20;;;5.00;99.90;;;4.18;100.00;95978.56;5075178;28;20339;-57
2022/11/23 08:46:36;;;;;;;4.07;1.35;;;5.00;99.90;;;4.20;100.00;95971.53;5073111;28;20036;-57
2022/11/23 08:49:02;;;;;;;4.07;1.20;;;5.10;99.90;;;4.20;100.00;95968.91;5076002;28;20093;-57
2022/11/23 08:51:28;;;;;;;4.63;1.40;;;5.10;99.90;;;4.27;100.00;95973.91;5071664;28;20027;-57
2022/11/23 08:53:54;;;;;;;3.25;1.45;;;5.10;99.90;;;4.35;100.00;95983.19;5075078;28;20032;-57
2022/11/23 08:56:20;;;;;;;4.82;1.63;;;5.10;99.90;;;4.41;100.00;95987.34;5071719;28;20464;-57
2022/11/23 08:58:45;;;;;;;5.47;1.17;;;5.20;99.90;;;4.50;100.00;95979.16;5074554;28;20036;-57
2022/11/23 09:01:14;;;;;;;2.75;1.10;;;5.30;99.90;;;4.54;100.00;95990.34;5072792;28;20555;-57
2022/11/23 09:03:41;;;;;;;3.80;1.33;;;5.40;99.90;;;4.57;100.00;95983.25;5072807;28;20131;-56
2022/11/23 09:06:07;;;;;;;9.68;1.67;;;5.40;99.90;;;4.64;100.00;95981.28;5071163;28;20109;-57
2022/11/23 09:08:34;;;;;;;5.88;1.50;;;5.50;99.90;;;4.68;100.00;95980.25;5072939;28;20045;-57
2022/11/23 09:11:01;;;;;;;3.15;1.40;;;5.50;99.90;;;4.76;100.00;95987.84;5070282;28;20032;-57
2022/11/23 09:13:28;;;;;;;2.60;1.30;;;5.50;99.90;;;4.81;100.00;95983.31;5068042;28;20037;-56
2022/11/23 09:16:01;;;;;;;1.63;1.15;;;5.60;99.90;;;4.84;100.00;95983.16;5069611;28;20454;-57
2022/11/23 09:18:29;;;;;;;4.35;1.55;;;5.70;99.90;;;4.84;100.00;95982.34;5073941;28;20366;-58
2022/11/23 09:20:55;;;;;;;4.47;1.30;;;5.70;99.90;;;4.92;100.00;95982.91;5071577;28;20192;-57
2022/11/23 09:23:22;;;;;;;4.28;1.50;;;5.70;99.90;;;4.96;100.00;95987.09;5073067;28;20024;-56
2022/11/23 09:25:49;;;;;;;4.57;1.40;;;5.80;99.90;;;5.01;100.00;95989.53;5071393;28;20029;-57
2022/11/23 09:28:18;;;;;;;6.00;1.83;;;5.80;99.90;;;5.02;100.00;95981.63;5071712;28;20116;-57
2022/11/23 09:30:45;;;;;;;7.22;1.52;;;5.80;99.90;;;5.09;100.00;95980.50;5071380;28;20044;-57
2022/11/23 09:33:11;;;;;;;4.30;1.25;;;5.90;99.90;;;5.16;100.00;95983.72;5074881;28;20017;-57
2022/11/23 09:35:37;;;;;;;3.70;1.20;;;5.90;99.90;;;5.17;100.00;95969.78;5059055;22;20049;-43
2022/11/23 09:38:03;;;;;;;5.90;1.23;;;6.00;99.90;;;5.27;100.00;95983.31;5038596;28;20032;-42
2022/11/23 09:40:39;;;;;;;5.40;1.48;;;6.10;99.90;;;5.33;100.00;95983.09;5038475;28;20120;-41
2022/11/23 09:43:34;;;;;;;4.72;1.40;;;6.10;99.90;;;5.41;100.00;95983.63;5037848;28;20039;-42
2022/11/23 09:46:20;;;;;;;4.05;1.27;;;6.10;99.90;;;5.49;100.00;95986.81;5023620;28;20108;-41
2022/11/23 09:49:01;;;;;;;6.53;1.50;;;6.20;99.90;;;5.53;100.00;95987.53;5020456;28;20033;-42
2022/11/23 09:51:27;;;;;;;4.32;1.33;;;6.30;99.90;;;5.58;100.00;95979.50;5035075;28;20485;-43
2022/11/23 09:53:57;;;;;;;6.32;1.60;;;6.40;99.90;;;5.63;100.00;95988.03;5039561;28;20154;-42
2022/11/23 09:56:28;;;;;;;4.28;1.40;;;6.40;99.90;;;5.68;100.00;95981.69;5036311;28;21004;-41
2022/11/23 09:58:59;;;;;;;3.63;1.20;;;6.40;99.90;;;5.66;100.00;95967.81;5019435;28;20411;-42
2022/11/23 10:01:31;;;;;;;4.55;1.55;;;6.50;99.90;;;5.76;100.00;95972.69;5036973;28;20114;-42
2022/11/23 10:03:57;;;;;;;4.93;1.50;;;6.50;99.90;;;5.74;100.00;95973.59;5038003;28;20471;-43
2022/11/23 10:06:32;;;;;;;5.75;1.58;;;6.50;99.90;;;5.84;100.00;95968.84;5038138;28;20123;-42
2022/11/23 10:09:23;;;;;;;4.82;1.60;;;6.60;99.90;;;5.89;100.00;95974.75;5037528;28;20148;-41
2022/11/23 10:12:14;;;;;;;4.97;1.40;;;6.60;99.90;;;5.93;100.00;95971.06;5037052;28;20484;-42
2022/11/23 10:15:08;;;;;;;4.88;1.35;;;6.70;99.90;;;6.01;100.00;95967.31;5036952;28;20157;-42
2022/11/23 10:18:11;;;;;;;4.90;1.27;;;6.70;99.90;;;6.04;100.00;95959.34;5035946;28;20497;-42
2022/11/23 10:21:08;;;;;;;3.88;1.25;;;6.80;99.90;;;6.06;100.00;95967.97;5035347;28;20729;-42
2022/11/23 10:23:56;;;;;;;6.30;1.48;;;6.80;99.90;;;6.12;100.00;95962.50;5018190;28;20055;-41
2022/11/23 10:26:43;;;;;;;7.35;1.42;;;6.80;99.90;;;6.10;100.00;95954.72;5019468;28;20452;-41
2022/11/23 10:29:36;;;;;;;4.28;1.63;;;6.90;99.90;;;6.19;100.00;95970.94;5036824;28;20021;-43